Time;durP1;ratioP1;P1;durP2;ratioP2;P2;SDS_P1;SDS_P2;PMS_P1;PMS_P2;Temp;Humidity;BMP_temperature;BMP_pressure;BME280_temperature;BME280_humidity;BME280_pressure;Samples;Min_cycle;Max_cycle;Signal;HPM_P1;HPM_P2
2022/01/22 09:33:48;;;;;;;23.90;12.73;;;5.40;99.90;;;;;;5123347;27;20455;-70
2022/01/22 09:36:15;;;;;;;22.58;13.07;;;5.00;99.90;;;;;;5107353;28;20517;-70
2022/01/22 09:38:41;;;;;;;26.10;13.98;;;5.20;99.90;;;;;;5120725;28;20123;-72
2022/01/22 09:41:07;;;;;;;27.95;14.20;;;5.40;99.90;;;;;;5115789;28;20106;-71
2022/01/22 09:43:32;;;;;;;25.75;14.05;;;5.50;99.90;;;;;;5102035;28;20035;-71
2022/01/22 09:45:58;;;;;;;29.95;15.50;;;5.70;99.90;;;;;;5111054;28;20071;-70
2022/01/22 09:48:24;;;;;;;22.33;12.18;;;5.90;99.90;;;;;;5104280;28;20088;-72
2022/01/22 09:50:50;;;;;;;20.33;11.30;;;6.10;99.90;;;;;;5107649;28;20024;-71
2022/01/22 09:53:16;;;;;;;25.83;13.25;;;6.20;99.90;;;;;;5110551;28;20130;-70
2022/01/22 09:55:42;;;;;;;25.17;12.38;;;6.40;99.90;;;;;;5112017;28;20099;-71
2022/01/22 09:58:08;;;;;;;24.58;13.20;;;6.50;99.90;;;;;;5102974;28;20529;-70
2022/01/22 10:00:35;;;;;;;22.80;13.68;;;6.70;99.90;;;;;;5103407;28;20023;-70
2022/01/22 10:03:01;;;;;;;24.42;15.00;;;6.80;99.90;;;;;;5108551;28;20447;-71
2022/01/22 10:05:30;;;;;;;26.42;16.83;;;6.90;99.90;;;;;;5108571;28;20055;-71
2022/01/22 10:08:24;;;;;;;20.40;13.50;;;7.10;99.90;;;;;;5097269;28;20031;-70
2022/01/22 10:10:52;;;;;;;20.92;10.90;;;7.20;99.90;;;;;;5095137;28;20044;-70
2022/01/22 10:13:38;;;;;;;24.85;10.80;;;7.30;99.90;;;;;;5095128;28;20032;-72
2022/01/22 10:16:15;;;;;;;17.65;9.18;;;7.40;99.90;;;;;;5098842;28;20024;-70
2022/01/22 10:18:42;;;;;;;14.30;9.27;;;7.50;99.90;;;;;;5101259;28;20059;-71
2022/01/22 10:21:13;;;;;;;20.40;8.73;;;7.60;99.90;;;;;;5099436;28;20015;-71
2022/01/22 10:23:39;;;;;;;16.42;9.57;;;7.70;99.90;;;;;;5101730;28;20040;-72
2022/01/22 10:26:08;;;;;;;21.30;9.50;;;7.80;99.90;;;;;;5099380;28;20077;-71
2022/01/22 10:28:46;;;;;;;16.95;9.20;;;7.80;99.40;;;;;;5099553;28;20051;-71
2022/01/22 10:31:22;;;;;;;20.63;10.40;;;7.90;99.10;;;;;;5102590;28;20026;-71
2022/01/22 10:34:11;;;;;;;16.02;9.20;;;7.90;99.00;;;;;;5094104;28;20039;-71
2022/01/22 10:36:38;;;;;;;18.70;10.57;;;8.00;98.60;;;;;;5107282;28;20032;-71
2022/01/22 10:39:21;;;;;;;16.17;9.75;;;8.10;98.50;;;;;;5115915;28;20136;-70
2022/01/22 10:41:46;;;;;;;18.48;11.00;;;8.20;98.20;;;;;;5102743;28;20107;-70
2022/01/22 10:44:20;;;;;;;20.13;9.07;;;8.20;98.10;;;;;;5099613;28;20111;-70
2022/01/22 10:46:49;;;;;;;17.83;9.52;;;8.30;97.70;;;;;;5090603;28;20024;-70
2022/01/22 10:49:26;;;;;;;18.23;10.18;;;8.40;97.10;;;;;;5089611;28;20097;-71
2022/01/22 10:51:52;;;;;;;19.88;12.05;;;8.40;97.00;;;;;;5092073;28;20039;-70
2022/01/22 10:54:23;;;;;;;22.73;15.50;;;8.50;96.50;;;;;;5085064;28;20040;-70
2022/01/22 10:56:50;;;;;;;;;;;8.50;96.10;;;;;;5090231;28;20422;-70
2022/01/22 10:59:18;;;;;;;34.85;21.88;;;8.60;94.50;;;;;;5093708;28;20025;-70
2022/01/22 11:01:44;;;;;;;14.68;8.25;;;8.60;94.40;;;;;;5092690;28;20036;-69
2022/01/22 11:04:29;;;;;;;51.42;31.08;;;8.70;94.30;;;;;;5090189;28;20418;-70
2022/01/22 11:06:58;;;;;;;20.80;11.05;;;8.70;94.30;;;;;;5092897;28;20447;-69
2022/01/22 11:09:26;;;;;;;47.63;27.15;;;8.70;94.50;;;;;;5084545;28;20102;-71
2022/01/22 11:11:53;;;;;;;103.95;56.38;;;8.80;94.40;;;;;;5094028;28;20135;-69
2022/01/22 11:14:20;;;;;;;51.58;29.48;;;8.80;94.00;;;;;;5100163;28;20039;-71
2022/01/22 11:16:48;;;;;;;40.25;23.67;;;8.90;93.80;;;;;;5099119;28;20526;-70
2022/01/22 11:19:16;;;;;;;20.60;9.93;;;8.90;93.50;;;;;;5095955;28;20031;-69
2022/01/22 11:21:47;;;;;;;58.67;33.38;;;8.90;93.40;;;;;;5098146;28;20080;-70
2022/01/22 11:24:16;;;;;;;27.02;14.68;;;9.00;93.30;;;;;;5097369;28;20024;-70
2022/01/22 11:26:46;;;;;;;27.75;16.77;;;9.00;93.00;;;;;;5097976;28;20573;-68
2022/01/22 11:29:14;;;;;;;38.55;21.60;;;9.10;92.70;;;;;;5108289;28;20034;-71
2022/01/22 11:31:45;;;;;;;23.27;12.88;;;9.10;93.00;;;;;;5087998;28;20028;-71
2022/01/22 11:34:12;;;;;;;20.20;10.68;;;9.10;92.80;;;;;;5109535;28;20027;-70
2022/01/22 11:36:53;;;;;;;19.77;11.63;;;9.10;92.50;;;;;;5103262;28;20050;-70
2022/01/22 11:39:21;;;;;;;;;;;9.10;92.80;;;;;;5089792;28;20103;-69
2022/01/22 11:41:55;;;;;;;25.95;14.57;;;9.10;92.50;;;;;;5081416;28;19964;-70
2022/01/22 11:44:40;;;;;;;37.40;20.60;;;9.10;92.30;;;;;;5087720;28;20036;-70
2022/01/22 11:47:14;;;;;;;17.98;9.70;;;9.20;91.30;;;;;;5081289;28;20031;-71
2022/01/22 11:50:00;;;;;;;18.58;9.50;;;9.20;91.50;;;;;;5081641;28;20495;-71
2022/01/22 11:52:29;;;;;;;21.60;11.68;;;9.10;91.10;;;;;;5085117;28;20040;-71
2022/01/22 11:54:59;;;;;;;30.27;16.35;;;9.20;91.30;;;;;;5085634;28;20029;-68
2022/01/22 11:57:31;;;;;;;20.73;11.48;;;9.10;91.00;;;;;;5082328;28;20031;-70
2022/01/22 12:00:15;;;;;;;24.65;12.82;;;9.10;91.80;;;;;;5089007;28;20031;-71
2022/01/22 12:02:41;;;;;;;19.23;10.70;;;9.20;91.40;;;;;;5096934;28;20043;-71
2022/01/22 12:05:07;;;;;;;25.95;12.75;;;9.10;91.10;;;;;;5098343;28;20043;-71
2022/01/22 12:07:36;;;;;;;31.50;15.20;;;9.20;91.40;;;;;;5096994;28;20028;-70
2022/01/22 12:16:14;;;;;;;20.02;10.80;;;9.30;90.10;;;;;;5020051;28;20036;-73
2022/01/22 12:18:54;;;;;;;98.50;51.50;;;9.20;90.40;;;;;;5026127;28;20052;-71
2022/01/22 12:23:56;;;;;;;19.48;12.13;;;9.10;90.60;;;;;;5025330;28;20056;-74
2022/01/22 12:26:46;;;;;;;20.35;12.40;;;9.10;90.40;;;;;;5028865;28;20032;-74
2022/01/22 12:29:38;;;;;;;35.83;31.88;;;9.10;90.20;;;;;;5037659;28;20033;-75
2022/01/22 12:32:05;;;;;;;19.92;10.63;;;9.10;90.60;;;;;;5023004;28;20105;-74
2022/01/22 12:34:52;;;;;;;24.42;12.73;;;9.10;90.80;;;;;;5028943;28;20104;-75
2022/01/22 12:37:20;;;;;;;21.60;13.88;;;9.10;90.80;;;;;;5026756;28;20034;-75
2022/01/22 12:39:50;;;;;;;19.63;9.40;;;9.10;90.70;;;;;;5023796;28;20396;-75
2022/01/22 12:42:32;;;;;;;19.00;8.60;;;9.10;91.00;;;;;;5024895;28;20029;-74
2022/01/22 12:45:02;;;;;;;18.65;10.63;;;9.10;88.90;;;;;;5067203;28;20093;-74
2022/01/22 12:47:28;;;;;;;17.55;12.10;;;9.10;90.10;;;;;;5090234;28;20012;-74
2022/01/22 12:50:08;;;;;;;23.40;16.63;;;9.10;90.70;;;;;;5085877;28;20036;-75
2022/01/22 12:52:34;;;;;;;20.83;13.77;;;9.10;90.80;;;;;;5089881;28;20449;-74
2022/01/22 12:55:13;;;;;;;19.85;10.77;;;9.10;91.40;;;;;;5084916;28;20027;-71
2022/01/22 12:57:43;;;;;;;21.17;11.57;;;9.10;91.20;;;;;;5056879;28;20402;-74
2022/01/22 13:00:13;;;;;;;25.17;11.00;;;9.20;91.10;;;;;;5085721;28;20099;-72
2022/01/22 13:02:51;;;;;;;18.87;11.37;;;9.20;91.00;;;;;;5088202;28;20028;-73
2022/01/22 13:05:18;;;;;;;16.58;10.02;;;9.20;91.00;;;;;;5089444;28;20328;-74
2022/01/22 13:07:52;;;;;;;19.10;9.48;;;9.30;90.90;;;;;;5082459;28;20052;-71
2022/01/22 13:10:19;;;;;;;21.13;12.80;;;9.30;89.80;;;;;;5080743;28;20095;-71
2022/01/22 13:12:46;;;;;;;19.90;10.55;;;9.30;90.40;;;;;;5086962;28;20043;-70
2022/01/22 13:15:16;;;;;;;19.23;10.43;;;9.30;90.60;;;;;;5082152;28;20032;-71
2022/01/22 13:17:51;;;;;;;22.90;14.38;;;9.30;90.70;;;;;;5085927;28;20024;-74
2022/01/22 13:20:22;;;;;;;23.23;12.98;;;9.30;90.80;;;;;;5088132;28;20066;-71
2022/01/22 13:22:48;;;;;;;;;;;9.30;90.50;;;;;;5068406;28;20565;-71
2022/01/22 13:25:15;;;;;;;29.70;20.95;;;9.30;90.90;;;;;;5085188;28;20006;-73
2022/01/22 13:27:42;;;;;;;25.80;18.92;;;9.20;91.00;;;;;;5085301;28;20502;-72
2022/01/22 13:30:13;;;;;;;24.60;14.95;;;9.20;91.00;;;;;;5087047;28;20032;-74
2022/01/22 13:35:24;;;;;;;25.77;15.85;;;9.20;91.50;;;;;;5094018;28;20032;-73
2022/01/22 13:49:00;;;;;;;24.95;11.20;;;9.20;91.20;;;;;;5099464;28;20050;-73
2022/01/22 13:51:27;;;;;;;18.23;9.80;;;9.20;91.30;;;;;;5100243;28;20510;-74
2022/01/22 13:53:54;;;;;;;26.45;13.98;;;9.30;91.40;;;;;;5085942;28;20036;-73
2022/01/22 13:56:22;;;;;;;29.00;17.20;;;9.30;91.40;;;;;;5094878;28;20027;-73
2022/01/22 13:58:53;;;;;;;24.90;13.52;;;9.30;91.00;;;;;;5092328;28;20039;-72
2022/01/22 14:01:40;;;;;;;20.38;11.45;;;9.40;90.80;;;;;;5093871;28;20015;-74
2022/01/22 14:04:11;;;;;;;20.92;12.43;;;9.40;90.40;;;;;;5099308;28;20551;-72
2022/01/22 14:06:38;;;;;;;23.13;11.70;;;9.40;90.40;;;;;;5088457;28;20032;-75
2022/01/22 14:09:18;;;;;;;21.30;11.55;;;9.40;90.70;;;;;;5094658;28;20056;-75
2022/01/22 14:12:06;;;;;;;34.45;23.50;;;9.40;91.00;;;;;;5100894;28;20028;-75
2022/01/22 14:15:00;;;;;;;24.30;16.92;;;9.40;90.90;;;;;;5089495;28;20372;-74
2022/01/22 14:17:37;;;;;;;24.80;16.40;;;9.50;90.30;;;;;;5095241;28;20067;-76
2022/01/22 14:20:10;;;;;;;30.58;24.15;;;9.50;90.10;;;;;;5074168;28;20031;-72
2022/01/22 14:22:54;;;;;;;37.00;28.95;;;9.40;90.80;;;;;;5093071;28;20063;-74
2022/01/22 14:25:21;;;;;;;26.98;20.13;;;9.40;91.20;;;;;;5094995;28;20035;-69
2022/01/22 14:28:09;;;;;;;22.98;13.70;;;9.40;90.80;;;;;;5091435;28;20036;-74
2022/01/22 14:30:41;;;;;;;21.15;14.63;;;9.50;90.40;;;;;;5098515;28;20041;-74
2022/01/22 14:33:08;;;;;;;24.77;16.33;;;9.50;90.00;;;;;;5095655;28;20498;-73
2022/01/22 14:35:35;;;;;;;21.50;14.55;;;9.50;90.10;;;;;;5099646;28;20026;-73
2022/01/22 14:38:20;;;;;;;25.63;15.73;;;9.50;90.00;;;;;;5090660;28;20065;-72
2022/01/22 14:44:24;;;;;;;25.77;15.77;;;9.50;89.90;;;;;;5090769;28;20031;-69
2022/01/22 14:46:58;;;;;;;27.95;20.33;;;9.50;90.00;;;;;;5092053;28;20051;-69
2022/01/22 14:49:40;;;;;;;25.58;16.02;;;9.50;90.00;;;;;;5097220;28;20035;-69
2022/01/22 14:52:08;;;;;;;31.80;20.63;;;9.50;90.10;;;;;;5094071;28;20032;-69
2022/01/22 14:54:41;;;;;;;31.13;18.63;;;9.50;89.30;;;;;;5083747;28;20111;-69
2022/01/22 14:57:09;;;;;;;21.77;10.82;;;9.40;89.50;;;;;;5089936;28;20024;-69
2022/01/22 14:59:37;;;;;;;21.00;13.55;;;9.40;89.70;;;;;;5096870;28;20110;-70
2022/01/22 15:02:04;;;;;;;25.35;11.35;;;9.40;89.70;;;;;;5100430;28;20110;-70
2022/01/22 15:04:31;;;;;;;22.48;11.85;;;9.40;89.50;;;;;;5091805;28;20056;-69
2022/01/22 15:06:59;;;;;;;24.05;12.80;;;9.40;90.10;;;;;;5090068;28;20028;-69
2022/01/22 15:09:25;;;;;;;23.67;12.73;;;9.40;90.40;;;;;;5089628;28;20020;-69
2022/01/22 15:11:52;;;;;;;29.13;12.93;;;9.40;90.60;;;;;;5088674;28;20807;-70
2022/01/22 15:14:18;;;;;;;30.48;20.15;;;9.40;90.70;;;;;;5092217;28;20031;-69
2022/01/22 15:16:47;;;;;;;66.00;42.15;;;9.40;90.40;;;;;;5095052;28;20066;-70
2022/01/22 15:19:17;;;;;;;35.53;25.95;;;9.30;89.60;;;;;;5089472;28;20028;-69
2022/01/22 15:21:46;;;;;;;28.40;18.40;;;9.30;89.80;;;;;;5090275;28;20089;-70
2022/01/22 15:24:13;;;;;;;34.30;21.15;;;9.20;90.00;;;;;;5089487;28;20389;-70
2022/01/22 15:26:40;;;;;;;24.48;14.57;;;9.20;90.30;;;;;;5091154;28;20031;-70
2022/01/22 15:29:07;;;;;;;36.78;24.20;;;9.20;90.40;;;;;;5095236;28;20474;-69
2022/01/22 15:31:36;;;;;;;34.88;26.80;;;9.20;91.00;;;;;;5095525;28;20020;-69
2022/01/22 15:34:12;;;;;;;52.95;47.15;;;9.10;91.20;;;;;;5094794;28;20039;-69
2022/01/22 15:36:40;;;;;;;41.33;35.28;;;9.10;91.70;;;;;;5092735;28;20143;-70
2022/01/22 15:39:07;;;;;;;30.02;21.48;;;9.00;91.40;;;;;;5089587;28;20074;-69
2022/01/22 15:41:34;;;;;;;47.78;38.42;;;9.00;91.30;;;;;;5101074;28;20019;-69
2022/01/22 15:44:01;;;;;;;47.33;37.92;;;9.00;91.80;;;;;;5090162;28;20035;-68
2022/01/22 15:46:27;;;;;;;60.70;49.15;;;9.00;91.40;;;;;;5088983;28;20038;-68
2022/01/22 15:48:53;;;;;;;22.50;13.13;;;8.90;91.60;;;;;;5089457;28;20028;-69
2022/01/22 15:51:19;;;;;;;22.30;12.00;;;8.90;92.30;;;;;;5086397;28;20027;-68
2022/01/22 15:53:45;;;;;;;20.15;12.77;;;8.80;92.40;;;;;;5085980;28;20075;-69
2022/01/22 15:56:11;;;;;;;44.70;36.30;;;8.80;92.40;;;;;;5088265;28;20024;-70
2022/01/22 15:58:37;;;;;;;60.97;51.65;;;8.80;92.30;;;;;;5084883;28;20464;-69
2022/01/22 16:01:05;;;;;;;87.55;73.28;;;8.80;92.30;;;;;;5080876;28;20028;-69
2022/01/22 16:03:31;;;;;;;111.05;91.03;;;8.70;92.70;;;;;;5086590;28;20035;-68
2022/01/22 16:06:06;;;;;;;93.65;72.38;;;8.70;92.90;;;;;;5088070;28;20024;-69
2022/01/22 16:08:32;;;;;;;25.80;14.40;;;8.70;93.20;;;;;;5092949;28;20031;-69
2022/01/22 16:10:58;;;;;;;43.78;34.05;;;8.60;93.20;;;;;;5089765;28;20498;-69
2022/01/22 16:13:25;;;;;;;67.18;53.03;;;8.70;93.80;;;;;;5085613;28;20206;-71
2022/01/22 16:15:51;;;;;;;66.75;56.40;;;8.60;93.30;;;;;;5085605;28;20016;-70
2022/01/22 16:18:17;;;;;;;43.42;33.33;;;8.60;93.30;;;;;;5077204;28;20103;-69
2022/01/22 16:20:44;;;;;;;53.35;39.33;;;8.60;93.60;;;;;;5072582;28;20105;-70
2022/01/22 16:23:10;;;;;;;26.65;14.50;;;8.60;93.60;;;;;;5088640;28;20122;-69
2022/01/22 16:25:36;;;;;;;33.28;19.92;;;8.50;93.60;;;;;;5090220;28;20467;-63
2022/01/22 16:28:02;;;;;;;28.65;16.20;;;8.50;93.90;;;;;;5084770;28;20020;-68
2022/01/22 16:30:28;;;;;;;32.53;18.70;;;8.50;93.80;;;;;;5093801;28;20039;-69
2022/01/22 16:32:53;;;;;;;46.55;34.40;;;8.50;93.90;;;;;;5084232;28;20056;-69
2022/01/22 16:35:19;;;;;;;35.10;22.25;;;8.40;93.90;;;;;;5096764;28;20043;-69
2022/01/22 16:37:45;;;;;;;31.27;17.38;;;8.40;94.10;;;;;;5086404;28;20371;-69
2022/01/22 16:40:16;;;;;;;35.00;19.58;;;8.40;94.80;;;;;;5090299;28;20163;-69
2022/01/22 16:42:47;;;;;;;29.10;17.92;;;8.30;94.60;;;;;;5089979;28;20569;-68
2022/01/22 16:56:11;;;;;;;28.58;17.25;;;8.20;95.50;;;;;;5087414;28;20028;-67
2022/01/22 16:58:45;;;;;;;31.73;19.20;;;8.10;95.60;;;;;;5092211;28;20031;-67
2022/01/22 17:01:14;;;;;;;31.83;20.98;;;8.10;95.70;;;;;;5093039;28;20475;-67
2022/01/22 17:03:40;;;;;;;29.83;15.25;;;8.10;95.70;;;;;;5088296;28;20039;-67
2022/01/22 17:06:06;;;;;;;27.15;15.02;;;8.10;96.40;;;;;;5092510;28;20195;-66
2022/01/22 17:08:36;;;;;;;27.35;14.85;;;8.10;96.40;;;;;;5089062;28;20059;-67
2022/01/22 17:16:15;;;;;;;29.40;16.45;;;8.10;96.40;;;;;;5089701;28;20165;-67
2022/01/22 17:18:41;;;;;;;29.77;15.52;;;8.10;96.60;;;;;;5087775;28;20408;-65
2022/01/22 17:21:07;;;;;;;26.73;14.38;;;8.10;96.90;;;;;;5088477;28;20058;-68
2022/01/22 17:23:33;;;;;;;26.98;15.52;;;8.10;96.80;;;;;;5088690;28;20028;-67
2022/01/22 17:25:59;;;;;;;28.33;15.52;;;8.10;97.00;;;;;;5093030;28;20494;-67
2022/01/22 17:28:25;;;;;;;25.58;14.43;;;8.10;97.00;;;;;;5090253;28;20038;-67
2022/01/22 17:30:51;;;;;;;33.92;15.45;;;8.10;96.70;;;;;;5065897;28;20093;-71
2022/01/22 17:33:20;;;;;;;32.22;16.40;;;8.10;96.60;;;;;;5088183;28;20198;-73
2022/01/22 17:35:47;;;;;;;30.17;14.38;;;8.00;97.00;;;;;;5089562;28;20093;-69
2022/01/22 17:38:13;;;;;;;27.77;14.55;;;8.00;97.10;;;;;;5088383;28;20016;-69
2022/01/22 17:40:44;;;;;;;27.73;14.13;;;8.00;97.30;;;;;;5093814;28;20043;-69
2022/01/22 17:43:11;;;;;;;27.60;14.70;;;8.00;97.40;;;;;;5084329;28;20024;-69
2022/01/22 17:45:42;;;;;;;26.35;14.48;;;8.00;97.60;;;;;;5091208;28;20020;-68
2022/01/22 17:48:08;;;;;;;29.00;14.98;;;8.00;97.40;;;;;;5098400;28;20017;-69
2022/01/22 17:50:37;;;;;;;28.48;15.43;;;8.00;97.40;;;;;;5089024;28;20233;-70
2022/01/22 17:53:03;;;;;;;32.05;16.83;;;8.00;97.40;;;;;;5086793;28;20509;-69
2022/01/22 17:55:30;;;;;;;30.20;16.50;;;8.00;97.30;;;;;;5085412;28;20028;-69
2022/01/22 17:57:56;;;;;;;32.10;16.63;;;8.00;97.40;;;;;;5097455;28;20035;-65
2022/01/22 18:00:22;;;;;;;30.90;15.88;;;8.00;97.30;;;;;;5091957;28;20032;-65
2022/01/22 18:02:49;;;;;;;34.15;16.40;;;8.00;97.20;;;;;;5092619;28;20024;-65
2022/01/22 18:05:15;;;;;;;36.65;18.95;;;8.00;97.40;;;;;;5093442;28;20008;-65
2022/01/22 18:07:41;;;;;;;30.75;15.73;;;8.00;97.30;;;;;;5090317;28;20020;-65
2022/01/22 18:10:07;;;;;;;29.40;16.60;;;8.00;97.30;;;;;;5091943;28;20024;-65
2022/01/22 18:12:33;;;;;;;28.67;16.50;;;8.00;97.30;;;;;;5091858;28;20060;-66
2022/01/22 18:14:59;;;;;;;31.38;17.02;;;8.00;97.50;;;;;;5092414;28;20082;-64
2022/01/22 18:17:25;;;;;;;26.20;14.80;;;8.00;97.80;;;;;;5093516;28;20028;-64
2022/01/22 18:19:52;;;;;;;28.23;16.00;;;7.90;97.60;;;;;;5091827;28;20498;-65
2022/01/22 18:22:19;;;;;;;27.30;14.85;;;8.00;97.60;;;;;;5089660;28;20082;-66
2022/01/22 18:24:45;;;;;;;28.13;15.20;;;7.90;97.50;;;;;;5091689;28;20065;-64
2022/01/22 18:27:11;;;;;;;27.58;15.77;;;7.90;97.40;;;;;;5099813;28;20044;-65
2022/01/22 18:29:37;;;;;;;29.48;15.30;;;7.90;97.30;;;;;;5092443;28;20059;-65
2022/01/22 18:32:04;;;;;;;29.85;15.60;;;7.90;97.40;;;;;;5092603;28;20044;-65
2022/01/22 18:34:33;;;;;;;27.70;15.15;;;7.90;97.60;;;;;;5090892;28;20032;-66
2022/01/22 18:37:01;;;;;;;39.28;19.88;;;7.90;97.70;;;;;;5094902;28;20462;-66
2022/01/22 18:39:27;;;;;;;38.00;23.27;;;7.90;97.60;;;;;;5104153;28;20024;-65
2022/01/22 18:41:55;;;;;;;35.92;20.05;;;7.90;97.70;;;;;;5091644;28;20490;-66
2022/01/22 18:44:22;;;;;;;32.03;16.63;;;7.90;97.80;;;;;;5075179;28;20431;-66
2022/01/22 18:46:47;;;;;;;35.63;22.48;;;7.90;97.80;;;;;;5101299;28;20525;-66
2022/01/22 18:49:18;;;;;;;47.30;33.60;;;7.90;97.90;;;;;;5097466;28;20024;-66
2022/01/22 18:51:44;;;;;;;28.45;17.33;;;7.90;97.90;;;;;;5091420;28;20099;-66
2022/01/22 18:54:10;;;;;;;41.13;23.20;;;7.90;97.80;;;;;;5091406;28;20031;-66
2022/01/22 18:56:36;;;;;;;31.55;17.38;;;7.90;97.80;;;;;;5098980;28;20379;-66
2022/01/22 18:59:10;;;;;;;32.33;19.10;;;7.90;97.90;;;;;;5092212;28;20089;-66
2022/01/22 19:01:39;;;;;;;32.20;16.95;;;7.90;97.80;;;;;;5090748;28;20402;-66
2022/01/22 19:04:20;;;;;;;32.10;15.98;;;7.90;97.70;;;;;;5089705;28;20089;-66
2022/01/22 19:06:46;;;;;;;49.53;29.15;;;7.90;97.50;;;;;;5090609;28;20506;-66
2022/01/22 19:09:12;;;;;;;36.20;19.60;;;7.90;97.80;;;;;;5091324;28;20028;-66
2022/01/22 19:11:38;;;;;;;49.03;28.17;;;7.90;97.60;;;;;;5091451;28;20119;-69
2022/01/22 19:14:04;;;;;;;34.70;19.48;;;7.80;97.70;;;;;;5090860;28;20055;-67
2022/01/22 19:16:30;;;;;;;35.70;21.10;;;7.80;97.70;;;;;;5091291;28;20475;-68
2022/01/22 19:18:56;;;;;;;39.08;20.73;;;7.80;97.80;;;;;;5072274;28;20547;-68
2022/01/22 19:21:28;;;;;;;50.10;24.60;;;7.80;97.60;;;;;;5090928;28;20027;-67
2022/01/22 19:24:00;;;;;;;56.00;32.95;;;7.80;97.60;;;;;;5090781;28;20032;-68
2022/01/22 19:29:10;;;;;;;39.88;22.40;;;7.80;97.70;;;;;;5091774;28;20081;-68
2022/01/22 19:31:36;;;;;;;43.53;22.23;;;7.80;97.90;;;;;;5093867;28;20035;-68
2022/01/22 19:34:02;;;;;;;31.30;16.60;;;7.80;98.00;;;;;;5098435;28;20047;-68
2022/01/22 19:36:29;;;;;;;59.95;32.72;;;7.80;98.10;;;;;;5090596;28;20461;-69
2022/01/22 19:38:58;;;;;;;36.53;18.80;;;7.80;98.10;;;;;;5089436;28;20109;-68
2022/01/22 19:41:26;;;;;;;35.40;18.35;;;7.80;98.10;;;;;;5091006;28;20012;-69
2022/01/22 19:44:00;;;;;;;31.13;16.90;;;8.00;98.60;;;;;;5091306;28;20032;-69
2022/01/22 19:46:26;;;;;;;35.03;17.70;;;7.80;97.50;;;;;;5090949;28;20066;-69
2022/01/22 19:48:55;;;;;;;38.20;20.00;;;7.80;97.10;;;;;;5097059;28;20060;-68
2022/01/22 19:51:22;;;;;;;35.38;19.15;;;7.80;97.50;;;;;;5093958;28;20030;-69
2022/01/22 19:53:53;;;;;;;34.25;17.98;;;7.80;97.60;;;;;;5094082;28;20050;-69
2022/01/22 19:56:20;;;;;;;33.50;19.45;;;7.70;97.90;;;;;;5076404;28;20498;-68
2022/01/22 19:58:46;;;;;;;41.80;23.00;;;7.80;97.90;;;;;;5074234;28;20135;-68
2022/01/22 20:01:12;;;;;;;46.17;26.10;;;7.80;98.00;;;;;;5093680;28;20024;-69
2022/01/22 20:03:38;;;;;;;36.03;18.80;;;7.80;98.00;;;;;;5094528;28;20024;-69
2022/01/22 20:06:04;;;;;;;35.30;19.70;;;7.70;98.00;;;;;;5093856;28;20040;-69
2022/01/22 20:08:30;;;;;;;35.55;18.45;;;7.70;98.00;;;;;;5094127;28;20107;-69
2022/01/22 20:10:58;;;;;;;39.25;19.30;;;7.80;98.30;;;;;;5092263;28;20032;-68
2022/01/22 20:13:26;;;;;;;33.92;18.23;;;7.80;98.30;;;;;;5092943;28;20043;-68
2022/01/22 20:15:53;;;;;;;35.58;18.77;;;7.80;98.30;;;;;;5091906;28;20032;-69
2022/01/22 20:18:19;;;;;;;32.42;17.10;;;7.80;98.30;;;;;;5105349;28;20032;-69
2022/01/22 20:20:45;;;;;;;36.85;18.35;;;7.80;98.20;;;;;;5092887;28;20559;-68
2022/01/22 20:23:12;;;;;;;32.92;17.55;;;7.80;98.30;;;;;;5092572;28;20052;-69
2022/01/22 20:25:41;;;;;;;29.40;16.60;;;7.80;98.10;;;;;;5073402;28;20021;-68
2022/01/22 20:28:07;;;;;;;32.40;16.75;;;7.70;98.10;;;;;;5089983;28;20094;-68
2022/01/22 20:30:33;;;;;;;37.60;17.25;;;7.70;98.20;;;;;;5089355;28;20104;-69
2022/01/22 20:33:00;;;;;;;29.10;16.13;;;7.70;98.10;;;;;;5089712;28;20080;-68
2022/01/22 20:35:27;;;;;;;31.73;17.08;;;7.70;97.90;;;;;;5085865;28;20417;-68
2022/01/22 20:37:55;;;;;;;30.90;16.45;;;7.70;97.90;;;;;;5089473;28;20101;-69
2022/01/22 20:40:21;;;;;;;59.83;30.75;;;7.70;97.90;;;;;;5088614;28;20032;-68
2022/01/22 20:42:47;;;;;;;71.53;43.72;;;7.60;98.30;;;;;;5092523;28;20020;-68
2022/01/22 20:45:14;;;;;;;36.95;19.98;;;7.60;98.80;;;;;;5089582;28;20028;-69
2022/01/22 20:47:48;;;;;;;32.78;18.92;;;7.60;98.80;;;;;;5089814;28;20498;-68
2022/01/22 20:50:27;;;;;;;33.97;18.40;;;7.60;98.80;;;;;;5090803;28;20048;-68
2022/01/22 20:52:55;;;;;;;36.10;19.50;;;7.60;99.00;;;;;;5090127;28;20071;-68
2022/01/22 20:55:23;;;;;;;34.03;17.65;;;7.60;99.10;;;;;;5088917;28;20020;-69
2022/01/22 20:57:53;;;;;;;30.60;16.05;;;7.60;99.00;;;;;;5088811;28;20506;-69
2022/01/22 21:00:20;;;;;;;;;;;7.60;98.90;;;;;;5089423;28;20020;-68
2022/01/22 21:02:46;;;;;;;38.55;18.08;;;7.60;98.90;;;;;;5089753;28;20324;-68
2022/01/22 21:05:14;;;;;;;33.30;17.70;;;7.60;99.00;;;;;;5088214;28;20055;-69
2022/01/22 21:07:44;;;;;;;37.53;21.17;;;7.60;99.20;;;;;;5089068;28;20051;-68
2022/01/22 21:10:12;;;;;;;31.40;17.42;;;7.50;98.80;;;;;;5089451;28;20031;-68
2022/01/22 21:12:38;;;;;;;31.90;19.17;;;7.50;99.00;;;;;;5089221;28;20032;-69
2022/01/22 21:15:05;;;;;;;35.55;21.25;;;7.50;98.80;;;;;;5088885;28;20042;-68
2022/01/22 21:17:30;;;;;;;36.15;19.65;;;7.50;98.90;;;;;;5072380;28;20023;-68
2022/01/22 21:19:56;;;;;;;34.33;18.88;;;7.60;98.90;;;;;;5088812;28;20386;-69
2022/01/22 21:22:22;;;;;;;37.58;18.13;;;7.50;98.80;;;;;;5088586;28;20031;-69
2022/01/22 21:24:48;;;;;;;42.85;18.88;;;7.50;99.00;;;;;;5088617;28;20032;-69
2022/01/22 21:27:16;;;;;;;36.65;20.42;;;7.50;99.30;;;;;;5088660;28;20028;-68
2022/01/22 21:29:43;;;;;;;34.70;17.75;;;7.50;99.30;;;;;;5088237;28;20040;-69
2022/01/22 21:32:10;;;;;;;34.20;19.90;;;7.50;99.30;;;;;;5087950;28;20082;-68
2022/01/22 21:34:37;;;;;;;49.08;29.58;;;7.60;99.40;;;;;;5086259;28;20068;-69
2022/01/22 21:39:57;;;;;;;41.72;24.02;;;7.60;99.30;;;;;;5066200;28;20062;-69
2022/01/22 21:42:26;;;;;;;57.25;41.30;;;7.60;99.20;;;;;;5065642;28;20115;-69
2022/01/22 21:44:53;;;;;;;37.08;18.77;;;7.60;99.10;;;;;;5066175;28;20037;-69
2022/01/22 21:47:20;;;;;;;32.20;18.60;;;7.60;99.10;;;;;;5067720;28;20487;-69
2022/01/22 21:49:47;;;;;;;34.28;18.70;;;7.60;99.00;;;;;;5066642;28;20116;-68
2022/01/22 21:52:13;;;;;;;38.40;20.15;;;7.60;99.20;;;;;;5066003;28;20098;-68
2022/01/22 21:54:39;;;;;;;33.17;17.58;;;7.60;99.20;;;;;;5066817;28;20032;-68
2022/01/22 21:57:06;;;;;;;32.53;17.48;;;7.60;99.20;;;;;;5066322;28;20029;-69
2022/01/22 21:59:32;;;;;;;35.30;18.35;;;7.50;99.10;;;;;;5067143;28;20024;-68
2022/01/22 22:01:58;;;;;;;33.25;19.23;;;7.50;99.30;;;;;;5066158;28;20063;-69
2022/01/22 22:04:24;;;;;;;35.50;20.20;;;7.50;99.40;;;;;;5066567;28;20571;-68
2022/01/22 22:06:50;;;;;;;35.80;20.00;;;7.50;99.50;;;;;;5066147;28;20111;-68
2022/01/22 22:09:16;;;;;;;36.28;18.35;;;7.50;99.80;;;;;;5066437;28;20032;-68
2022/01/22 22:11:44;;;;;;;33.08;17.48;;;7.50;99.70;;;;;;5066371;28;20063;-68
2022/01/22 22:14:11;;;;;;;36.92;18.27;;;7.40;99.70;;;;;;5067234;28;20037;-68
2022/01/22 22:16:39;;;;;;;32.33;17.27;;;7.40;99.80;;;;;;5076112;28;20095;-68
2022/01/22 22:19:06;;;;;;;30.92;17.15;;;7.40;99.90;;;;;;5081504;28;20108;-68
2022/01/22 22:21:32;;;;;;;32.22;16.73;;;7.40;99.80;;;;;;5075212;28;20042;-69
2022/01/22 22:23:59;;;;;;;28.40;16.60;;;7.40;99.60;;;;;;5086157;28;20046;-69
2022/01/22 22:26:25;;;;;;;51.42;26.15;;;7.40;99.70;;;;;;5089166;28;20024;-68
2022/01/22 22:28:51;;;;;;;42.38;21.17;;;7.40;99.60;;;;;;5084766;28;20039;-68
2022/01/22 22:31:17;;;;;;;65.78;32.83;;;7.40;99.60;;;;;;5087295;28;20085;-68
2022/01/22 22:33:46;;;;;;;83.63;44.17;;;7.40;99.60;;;;;;5087243;28;20522;-68
2022/01/22 22:36:14;;;;;;;34.20;16.27;;;7.40;99.60;;;;;;5087283;28;20032;-68
2022/01/22 22:38:39;;;;;;;39.50;22.08;;;7.40;99.70;;;;;;5088098;28;20169;-68
2022/01/22 22:41:07;;;;;;;51.13;31.00;;;7.40;99.80;;;;;;5091036;28;20476;-68
2022/01/22 22:43:35;;;;;;;48.60;29.13;;;7.40;99.80;;;;;;5089436;28;20031;-68
2022/01/22 22:46:05;;;;;;;35.97;19.48;;;7.40;99.90;;;;;;5089754;28;20028;-68
2022/01/22 22:48:31;;;;;;;48.28;29.33;;;7.40;99.80;;;;;;5089012;28;20056;-68
2022/01/22 22:50:57;;;;;;;39.15;20.90;;;7.40;99.90;;;;;;5074097;28;20052;-68
2022/01/22 22:53:23;;;;;;;43.92;26.70;;;7.40;99.90;;;;;;5092696;28;20519;-68
2022/01/22 22:55:50;;;;;;;32.85;17.67;;;7.40;99.90;;;;;;5088035;28;20032;-69
2022/01/22 22:58:15;;;;;;;32.65;18.80;;;7.40;99.70;;;;;;5090243;28;20031;-68
2022/01/22 23:00:58;;;;;;;35.60;18.00;;;7.40;99.40;;;;;;5090512;28;20379;-68
2022/01/22 23:03:27;;;;;;;40.90;22.60;;;7.30;99.50;;;;;;5089410;28;20070;-68
2022/01/22 23:05:54;;;;;;;40.03;21.70;;;7.30;99.60;;;;;;5090526;28;20127;-68
2022/01/22 23:08:20;;;;;;;33.00;18.08;;;7.30;99.60;;;;;;5091978;28;20072;-68